createdAt,value
2019-06-10T00:00:21.874Z,20.14
2019-06-10T00:02:52.337Z,19.79
2019-06-10T00:05:22.940Z,19.85
2019-06-10T00:07:53.466Z,19.87
2019-06-10T00:10:23.996Z,19.71
2019-06-10T00:12:55.342Z,19.60
2019-06-10T00:15:27.281Z,19.72
2019-06-10T00:18:18.765Z,19.65
2019-06-10T00:20:30.558Z,19.77
2019-06-10T00:23:02.551Z,19.77
2019-06-10T00:25:32.969Z,19.48
2019-06-10T00:28:05.649Z,19.49
2019-06-10T00:30:35.799Z,19.52
2019-06-10T00:33:08.031Z,19.40
2019-06-10T00:35:41.185Z,19.39
2019-06-10T00:38:14.393Z,19.05
2019-06-10T00:40:43.401Z,18.84
2019-06-10T00:43:14.235Z,18.95
2019-06-10T00:45:44.873Z,18.84
2019-06-10T00:48:25.009Z,18.73
2019-06-10T00:50:48.432Z,18.95
2019-06-10T00:53:21.174Z,18.73
2019-06-10T00:55:51.781Z,18.71
2019-06-10T00:58:22.517Z,18.40
2019-06-10T01:00:52.992Z,18.49
2019-06-10T01:03:24.363Z,18.72
2019-06-10T01:05:55.159Z,18.54
2019-06-10T01:08:25.650Z,18.36
2019-06-10T01:10:56.099Z,18.29
2019-06-10T01:13:26.541Z,18.51
2019-06-10T01:15:57.328Z,18.58
2019-06-10T01:18:37.565Z,18.39
2019-06-10T01:21:01.799Z,18.40
2019-06-10T01:23:32.801Z,18.13
2019-06-10T01:26:03.654Z,17.93
2019-06-10T01:28:34.237Z,17.87
2019-06-10T01:31:07.852Z,18.18
2019-06-10T01:33:36.634Z,18.26
2019-06-10T01:36:07.680Z,18.28
2019-06-10T01:38:38.099Z,17.99
2019-06-10T01:41:10.680Z,17.92
2019-06-10T01:43:40.879Z,17.81
2019-06-10T01:46:12.916Z,17.69
2019-06-10T01:48:47.837Z,17.72
2019-06-10T01:51:21.077Z,17.79
2019-06-10T01:53:51.470Z,17.79
2019-06-10T01:56:23.382Z,17.96
2019-06-10T01:58:53.696Z,17.91
2019-06-10T02:01:42.485Z,18.08
2019-06-10T02:04:16.085Z,18.19
2019-06-10T02:06:45.295Z,18.42
2019-06-10T02:09:17.197Z,18.30
2019-06-10T02:11:48.042Z,18.18
2019-06-10T02:14:20.381Z,18.05
2019-06-10T02:16:50.772Z,17.88
2019-06-10T02:19:22.981Z,17.74
2019-06-10T02:21:53.492Z,17.61
2019-06-10T02:24:23.807Z,17.57
2019-06-10T02:26:54.481Z,17.56
2019-06-10T02:29:24.780Z,17.35
2019-06-10T02:31:55.604Z,17.26
2019-06-10T02:34:27.571Z,17.19
2019-06-10T02:36:59.138Z,17.39
2019-06-10T02:39:35.016Z,17.39
2019-06-10T02:42:08.351Z,17.49
2019-06-10T02:44:38.822Z,17.50
2019-06-10T02:47:09.391Z,17.67
2019-06-10T02:49:56.440Z,17.57
2019-06-10T02:52:20.043Z,17.76
2019-06-10T02:54:53.205Z,17.76
2019-06-10T02:57:29.687Z,17.76
2019-06-10T02:59:54.724Z,17.75
2019-06-10T03:02:31.306Z,17.60
2019-06-10T03:04:57.582Z,17.49
2019-06-10T03:07:30.966Z,17.52
2019-06-10T03:10:04.404Z,17.29
2019-06-10T03:12:33.143Z,17.29
2019-06-10T03:15:03.531Z,17.40
2019-06-10T03:17:34.870Z,17.26
2019-06-10T03:20:05.768Z,17.71
2019-06-10T03:22:36.195Z,17.71
2019-06-10T03:25:06.758Z,17.63
2019-06-10T03:27:37.070Z,17.61
2019-06-10T03:30:15.289Z,17.76
2019-06-10T03:32:42.715Z,18.01
2019-06-10T03:35:13.190Z,18.01
2019-06-10T03:37:44.117Z,17.91
2019-06-10T03:40:14.725Z,18.02
2019-06-10T03:42:45.126Z,18.23
2019-06-10T03:45:17.447Z,18.15
2019-06-10T03:47:47.862Z,18.26
2019-06-10T03:50:19.263Z,18.38
2019-06-10T03:52:52.322Z,18.46
2019-06-10T03:55:24.895Z,18.39
2019-06-10T03:57:54.110Z,18.32
2019-06-10T04:00:27.178Z,18.41
2019-06-10T04:02:57.556Z,18.42
2019-06-10T04:05:28.849Z,18.48
2019-06-10T04:08:02.164Z,18.54
2019-06-10T04:10:32.677Z,18.78
2019-06-10T04:13:03.339Z,18.92
2019-06-10T04:15:33.830Z,19.02
2019-06-10T04:18:04.216Z,19.22
2019-06-10T04:20:34.882Z,19.42
2019-06-10T04:23:05.605Z,19.44
2019-06-10T04:25:39.369Z,19.68
2019-06-10T04:28:12.377Z,19.81
2019-06-10T04:30:43.179Z,20.06
2019-06-10T04:33:13.670Z,20.26
2019-06-10T04:35:44.189Z,20.28
2019-06-10T04:38:14.481Z,20.49
2019-06-10T04:40:45.302Z,20.68
2019-06-10T04:43:15.656Z,20.88
2019-06-10T04:45:45.996Z,21.21
2019-06-10T04:48:16.365Z,21.18
2019-06-10T04:50:46.990Z,21.29
2019-06-10T04:53:18.614Z,21.31
2019-06-10T04:55:52.287Z,21.56
2019-06-10T04:58:24.412Z,21.56
2019-06-10T05:00:54.822Z,21.80
2019-06-10T05:03:26.816Z,21.89
2019-06-10T05:05:57.460Z,22.12
2019-06-10T05:08:28.500Z,22.20
2019-06-10T05:10:59.887Z,22.15
2019-06-10T05:13:30.437Z,22.26
2019-06-10T05:16:03.500Z,22.27
2019-06-10T05:18:33.470Z,22.20
2019-06-10T05:21:04.395Z,22.42
2019-06-10T05:23:34.896Z,22.41
2019-06-10T05:26:05.333Z,22.78
2019-06-10T05:28:35.929Z,22.79
2019-06-10T05:31:06.546Z,22.72
2019-06-10T05:33:36.827Z,23.05
2019-06-10T05:36:07.299Z,23.06
2019-06-10T05:38:37.937Z,23.23
2019-06-10T05:41:08.227Z,23.14
2019-06-10T05:43:38.961Z,23.17
2019-06-10T05:46:09.255Z,23.40
2019-06-10T05:48:39.678Z,23.52
2019-06-10T05:51:12.233Z,23.50
2019-06-10T05:53:45.722Z,23.62
2019-06-10T05:56:15.500Z,23.72
2019-06-10T05:58:46.305Z,23.69
2019-06-10T06:01:16.617Z,23.64
2019-06-10T06:03:46.996Z,23.72
2019-06-10T06:06:17.712Z,23.64
2019-06-10T06:08:47.996Z,23.90
2019-06-10T06:11:18.303Z,23.91
2019-06-10T06:13:48.945Z,24.20
2019-06-10T06:16:19.329Z,24.21
2019-06-10T06:18:52.481Z,24.28
2019-06-10T06:21:30.048Z,24.53
2019-06-10T06:23:54.354Z,24.48
2019-06-10T06:26:26.385Z,24.25
2019-06-10T06:28:57.276Z,24.74
2019-06-10T06:31:28.144Z,24.90
2019-06-10T06:33:58.849Z,24.72
2019-06-10T06:36:30.610Z,24.58
2019-06-10T06:39:02.318Z,24.50
2019-06-10T06:41:35.467Z,24.59
2019-06-10T06:44:06.261Z,24.37
2019-06-10T06:46:39.227Z,24.28
2019-06-10T06:49:08.639Z,24.43
2019-06-10T06:51:51.835Z,24.48
2019-06-10T06:54:12.529Z,24.37
2019-06-10T06:56:43.842Z,24.46
2019-06-10T06:59:14.371Z,24.69
2019-06-10T07:01:45.128Z,24.93
2019-06-10T07:04:15.898Z,25.11
2019-06-10T07:06:46.234Z,25.46
2019-06-10T07:09:17.996Z,25.81
2019-06-10T07:11:49.089Z,25.72
2019-06-10T07:14:23.159Z,25.62
2019-06-10T07:16:53.020Z,25.29
2019-06-10T07:19:23.429Z,25.33
2019-06-10T07:22:08.286Z,25.73
2019-06-10T07:24:28.164Z,25.90
2019-06-10T07:26:58.453Z,25.69
2019-06-10T07:29:29.094Z,25.71
2019-06-10T07:31:59.823Z,25.53
2019-06-10T07:34:32.558Z,25.46
2019-06-10T07:37:02.639Z,25.80
2019-06-10T07:39:36.428Z,25.93
2019-06-10T07:42:06.260Z,25.59
2019-06-10T07:44:37.559Z,25.57
2019-06-10T07:47:08.285Z,25.53
2019-06-10T07:49:39.290Z,25.49
2019-06-10T07:52:16.543Z,25.85
2019-06-10T07:54:44.022Z,25.55
2019-06-10T07:57:14.389Z,25.80
2019-06-10T07:59:45.999Z,25.77
2019-06-10T08:02:16.457Z,25.96
2019-06-10T08:04:46.877Z,25.93
2019-06-10T08:07:17.568Z,26.04
2019-06-10T08:09:47.970Z,25.81
2019-06-10T08:12:18.274Z,26.05
2019-06-10T08:14:49.009Z,26.02
2019-06-10T08:17:19.580Z,26.18
2019-06-10T08:19:53.844Z,26.31
2019-06-10T08:22:34.209Z,26.56
2019-06-10T08:24:56.107Z,26.66
2019-06-10T08:27:26.819Z,26.55
2019-06-10T08:30:14.105Z,26.70
2019-06-10T08:32:29.997Z,26.89
2019-06-10T08:35:02.805Z,27.15
2019-06-10T08:37:33.262Z,26.96
2019-06-10T08:40:03.914Z,27.36
2019-06-10T08:42:34.283Z,27.30
2019-06-10T08:45:05.263Z,27.51
2019-06-10T08:47:36.842Z,27.65
2019-06-10T08:50:07.873Z,27.38
2019-06-10T08:52:56.899Z,27.45
2019-06-10T08:55:12.580Z,27.27
2019-06-10T08:57:46.982Z,27.60
2019-06-10T09:00:18.593Z,27.71
2019-06-10T09:02:53.672Z,27.58
2019-06-10T09:05:23.975Z,27.49
2019-06-10T09:07:54.657Z,27.67
2019-06-10T09:10:26.173Z,27.05
2019-06-10T09:12:56.668Z,27.15
2019-06-10T09:15:26.961Z,27.10
2019-06-10T09:17:57.554Z,27.42
2019-06-10T09:20:28.566Z,27.25
2019-06-10T09:23:14.997Z,27.29
2019-06-10T09:25:33.319Z,27.18
2019-06-10T09:28:03.500Z,27.06
2019-06-10T09:30:33.839Z,27.34
2019-06-10T09:33:04.925Z,27.32
2019-06-10T09:35:35.645Z,27.33
2019-06-10T09:38:06.163Z,27.37
2019-06-10T09:40:59.199Z,27.14
2019-06-10T09:43:24.421Z,27.08
2019-06-10T09:45:56.463Z,27.36
2019-06-10T09:48:27.794Z,27.38
2019-06-10T09:50:59.302Z,27.42
2019-06-10T09:53:38.850Z,27.78
2019-06-10T09:56:04.126Z,27.85
2019-06-10T09:58:34.479Z,28.00
2019-06-10T10:01:06.364Z,28.56
2019-06-10T10:03:37.188Z,28.64
2019-06-10T10:06:14.489Z,28.72
2019-06-10T10:08:41.348Z,28.91
2019-06-10T10:11:12.865Z,28.97
2019-06-10T10:13:46.518Z,29.00
2019-06-10T10:16:16.481Z,28.88
2019-06-10T10:18:49.426Z,28.81
2019-06-10T10:21:19.424Z,28.71
2019-06-10T10:23:54.223Z,28.47
2019-06-10T10:26:21.863Z,28.42
2019-06-10T10:28:56.912Z,27.39
2019-06-10T10:31:24.574Z,26.42
2019-06-10T10:33:55.382Z,26.43
2019-06-10T10:36:25.680Z,25.90
2019-06-10T10:38:56.366Z,26.43
2019-06-10T10:41:27.060Z,26.22
2019-06-10T10:43:58.486Z,26.35
2019-06-10T10:46:29.016Z,26.57
2019-06-10T10:49:02.519Z,27.17
2019-06-10T10:51:32.668Z,27.83
2019-06-10T10:54:21.211Z,27.90
2019-06-10T10:56:35.350Z,27.70
2019-06-10T10:59:06.146Z,28.14
2019-06-10T11:01:36.487Z,28.91
2019-06-10T11:04:07.509Z,28.62
2019-06-10T11:06:37.937Z,29.44
2019-06-10T11:09:12.754Z,29.41
2019-06-10T11:11:44.072Z,29.43
2019-06-10T11:14:15.424Z,28.91
2019-06-10T11:16:47.176Z,30.07
2019-06-10T11:19:17.729Z,30.27
2019-06-10T11:21:48.017Z,30.71
2019-06-10T11:24:33.604Z,30.62
2019-06-10T11:26:55.146Z,30.02
2019-06-10T11:29:24.400Z,30.70
2019-06-10T11:31:57.369Z,30.56
2019-06-10T11:34:27.561Z,30.65
2019-06-10T11:36:58.319Z,31.12
2019-06-10T11:39:28.779Z,31.18
2019-06-10T11:41:59.099Z,31.51
2019-06-10T11:44:29.775Z,31.82
2019-06-10T11:47:03.060Z,32.36
2019-06-10T11:49:32.636Z,30.47
2019-06-10T11:52:03.381Z,31.56
2019-06-10T11:54:50.597Z,31.60
2019-06-10T11:57:07.304Z,31.15
2019-06-10T11:59:37.960Z,31.24
2019-06-10T12:02:08.737Z,31.05
2019-06-10T12:04:39.092Z,30.74
2019-06-10T12:07:09.363Z,30.39
2019-06-10T12:09:39.756Z,30.45
2019-06-10T12:12:12.681Z,30.21
2019-06-10T12:14:43.213Z,30.43
2019-06-10T12:17:29.723Z,30.13
2019-06-10T12:19:45.866Z,30.26
2019-06-10T12:22:16.577Z,29.65
2019-06-10T12:24:46.899Z,29.75
2019-06-10T12:27:17.195Z,29.06
2019-06-10T12:29:48.020Z,29.08
2019-06-10T12:32:18.283Z,28.89
2019-06-10T12:34:48.614Z,28.67
2019-06-10T12:37:19.316Z,29.07
2019-06-10T12:39:49.714Z,29.19
2019-06-10T12:42:22.289Z,29.15
2019-06-10T12:44:54.457Z,29.59
2019-06-10T12:47:24.258Z,29.61
2019-06-10T12:49:56.160Z,29.79
2019-06-10T12:52:27.014Z,30.08
2019-06-10T12:54:57.601Z,29.72
2019-06-10T12:57:28.186Z,29.95
2019-06-10T12:59:58.668Z,30.26
2019-06-10T13:02:33.921Z,29.87
2019-06-10T13:05:05.660Z,29.91
2019-06-10T13:07:36.046Z,30.48
2019-06-10T13:10:07.885Z,30.92
2019-06-10T13:12:38.689Z,31.52
2019-06-10T13:15:10.039Z,32.28
2019-06-10T13:17:43.790Z,32.76
2019-06-10T13:20:13.703Z,33.25
2019-06-10T13:22:44.073Z,34.03
2019-06-10T13:25:14.772Z,34.67
2019-06-10T13:27:45.697Z,35.52
2019-06-10T13:30:17.781Z,35.37
2019-06-10T13:32:48.446Z,35.52
2019-06-10T13:35:19.405Z,35.44
2019-06-10T13:37:52.182Z,35.32
2019-06-10T13:40:22.674Z,35.10
2019-06-10T13:42:53.446Z,33.84
2019-06-10T13:45:25.635Z,34.05
2019-06-10T13:47:56.189Z,33.37
2019-06-10T13:50:28.130Z,32.08
2019-06-10T13:52:58.738Z,31.95
2019-06-10T13:55:29.042Z,32.11
2019-06-10T13:57:59.717Z,31.38
2019-06-10T14:00:40.822Z,31.02
2019-06-10T14:03:05.107Z,31.19
2019-06-10T14:05:34.706Z,30.44
2019-06-10T14:08:08.659Z,29.09
2019-06-10T14:10:37.135Z,28.43
2019-06-10T14:13:09.561Z,27.96
2019-06-10T14:15:42.368Z,27.75
2019-06-10T14:18:14.989Z,27.13
2019-06-10T14:20:44.626Z,26.66
2019-06-10T14:23:17.609Z,26.39
2019-06-10T14:25:47.430Z,24.93
2019-06-10T14:28:35.799Z,26.07
2019-06-10T14:30:50.278Z,26.09
2019-06-10T14:33:23.189Z,26.06
2019-06-10T14:35:53.519Z,25.78
2019-06-10T14:38:23.944Z,25.70
2019-06-10T14:40:54.308Z,25.54
2019-06-10T14:43:24.851Z,25.45
2019-06-10T14:45:55.219Z,25.17
2019-06-10T14:48:25.549Z,25.10
2019-06-10T14:50:55.989Z,24.93
2019-06-10T14:53:26.767Z,24.96
2019-06-10T14:55:57.406Z,24.83
2019-06-10T14:58:27.677Z,24.63
2019-06-10T15:00:58.263Z,24.76
2019-06-10T15:03:28.982Z,24.86
2019-06-10T15:05:59.303Z,24.93
2019-06-10T15:08:32.128Z,25.08
2019-06-10T15:11:01.805Z,25.25
2019-06-10T15:13:32.723Z,24.86
2019-06-10T15:16:04.300Z,25.15
2019-06-10T15:18:35.386Z,25.20
2019-06-10T15:21:06.950Z,25.39
2019-06-10T15:23:37.482Z,25.45
2019-06-10T15:26:08.007Z,25.46
2019-06-10T15:28:39.432Z,25.46
2019-06-10T15:31:12.967Z,25.49
2019-06-10T15:36:13.238Z,25.54
2019-06-10T15:38:44.106Z,25.64
2019-06-10T15:41:17.862Z,25.61
2019-06-10T15:43:46.616Z,25.70
2019-06-10T15:46:17.979Z,25.61
2019-06-10T15:48:49.894Z,25.52
2019-06-10T15:51:25.071Z,25.52
2019-06-10T15:53:52.456Z,25.55
2019-06-10T15:56:36.482Z,25.45
2019-06-10T15:58:54.869Z,25.61
2019-06-10T16:01:27.399Z,25.64
2019-06-10T16:03:57.570Z,25.53
2019-06-10T16:06:27.971Z,25.68
2019-06-10T16:08:58.354Z,25.77
2019-06-10T16:11:28.693Z,25.71
2019-06-10T16:13:59.224Z,25.72
2019-06-10T16:16:32.351Z,25.73
2019-06-10T16:19:02.242Z,25.63
2019-06-10T16:21:34.113Z,25.60
2019-06-10T16:24:05.113Z,25.38
2019-06-10T16:26:35.616Z,25.87
2019-06-10T16:29:06.275Z,25.83
2019-06-10T16:31:36.661Z,25.93
2019-06-10T16:34:07.242Z,25.68
2019-06-10T16:36:37.621Z,25.84
2019-06-10T16:39:08.287Z,25.85
2019-06-10T16:41:39.833Z,25.90
2019-06-10T16:44:10.606Z,26.04
2019-06-10T16:46:43.082Z,26.23
2019-06-10T16:49:13.042Z,25.94
2019-06-10T16:51:43.502Z,25.59
2019-06-10T16:54:14.088Z,25.68
2019-06-10T16:56:45.624Z,25.37
2019-06-10T16:59:16.355Z,25.21
2019-06-10T17:01:46.689Z,24.96
2019-06-10T17:04:17.534Z,24.92
2019-06-10T17:06:47.810Z,24.80
2019-06-10T17:09:18.571Z,24.59
2019-06-10T17:11:49.256Z,24.55
2019-06-10T17:14:20.063Z,24.43
2019-06-10T17:16:52.741Z,24.34
2019-06-10T17:19:26.836Z,24.20
2019-06-10T17:21:56.294Z,24.14
2019-06-10T17:24:27.683Z,24.03
2019-06-10T17:26:59.035Z,23.92
2019-06-10T17:29:30.597Z,23.81
2019-06-10T17:32:02.758Z,23.63
2019-06-10T17:34:33.904Z,23.27
2019-06-10T17:37:04.489Z,23.41
2019-06-10T17:39:35.232Z,22.71
2019-06-10T17:42:05.807Z,22.48
2019-06-10T17:44:36.145Z,22.41
2019-06-10T17:47:06.983Z,22.50
2019-06-10T17:49:37.728Z,22.53
2019-06-10T17:52:08.051Z,22.65
2019-06-10T17:54:38.655Z,22.74
2019-06-10T17:57:09.393Z,22.80
2019-06-10T17:59:39.889Z,22.81
2019-06-10T18:02:12.378Z,22.88
2019-06-10T18:04:42.319Z,22.85
2019-06-10T18:07:13.132Z,22.90
2019-06-10T18:09:43.439Z,23.06
2019-06-10T18:12:14.058Z,22.91
2019-06-10T18:14:44.744Z,23.06
2019-06-10T18:17:15.046Z,22.80
2019-06-10T18:19:45.992Z,22.70
2019-06-10T18:22:16.661Z,22.43
2019-06-10T18:24:46.997Z,22.41
2019-06-10T18:27:17.766Z,22.55
2019-06-10T18:29:48.479Z,22.61
2019-06-10T18:32:18.771Z,22.71
2019-06-10T18:34:49.153Z,22.74
2019-06-10T18:37:22.752Z,22.39
2019-06-10T18:39:52.756Z,22.08
2019-06-10T18:42:23.664Z,22.45
2019-06-10T18:44:54.170Z,22.56
2019-06-10T18:47:24.684Z,22.56
2019-06-10T18:49:55.399Z,22.54
2019-06-10T18:52:26.704Z,22.57
2019-06-10T18:54:57.137Z,22.50
2019-06-10T18:57:28.799Z,22.43
2019-06-10T19:00:00.055Z,22.30
2019-06-10T19:02:30.420Z,22.20
2019-06-10T19:05:02.822Z,22.11
2019-06-10T19:07:33.865Z,21.54
2019-06-10T19:10:05.536Z,21.23
2019-06-10T19:12:37.028Z,21.11
2019-06-10T19:15:11.920Z,21.05
2019-06-10T19:17:44.343Z,21.45
2019-06-10T19:20:16.098Z,21.58
2019-06-10T19:22:46.503Z,21.40
2019-06-10T19:25:17.224Z,21.46
2019-06-10T19:27:47.580Z,21.47
2019-06-10T19:30:18.642Z,21.53
2019-06-10T19:32:49.061Z,21.52
2019-06-10T19:35:19.414Z,21.64
2019-06-10T19:37:49.749Z,21.59
2019-06-10T19:40:22.649Z,21.59
2019-06-10T19:42:52.871Z,21.56
2019-06-10T19:45:23.745Z,21.55
2019-06-10T19:47:56.695Z,21.57
2019-06-10T19:50:26.029Z,21.60
2019-06-10T19:52:56.627Z,21.41
2019-06-10T19:55:27.218Z,21.54
2019-06-10T19:57:57.641Z,21.44
2019-06-10T20:00:28.580Z,21.70
2019-06-10T20:02:58.934Z,21.78
2019-06-10T20:05:29.268Z,21.51
2019-06-10T20:07:59.961Z,21.46
2019-06-10T20:10:32.371Z,21.49
2019-06-10T20:13:03.043Z,21.64
2019-06-10T20:15:33.410Z,21.60
2019-06-10T20:18:03.678Z,21.67
2019-06-10T20:20:34.411Z,21.49
2019-06-10T20:23:08.504Z,21.70
2019-06-10T20:25:38.335Z,21.64
2019-06-10T20:28:09.300Z,21.74
2019-06-10T20:30:41.512Z,21.90
2019-06-10T20:33:13.737Z,21.89
2019-06-10T20:35:45.724Z,21.86
2019-06-10T20:38:17.543Z,21.83
2019-06-10T20:40:48.759Z,21.78
2019-06-10T20:43:19.280Z,21.79
2019-06-10T20:45:50.035Z,21.69
2019-06-10T20:48:24.293Z,21.67
2019-06-10T20:50:54.186Z,21.47
2019-06-10T20:53:24.523Z,21.39
2019-06-10T20:55:57.761Z,21.30
2019-06-10T20:58:27.373Z,21.46
2019-06-10T21:00:58.612Z,21.46
2019-06-10T21:03:29.100Z,21.20
2019-06-10T21:06:03.130Z,20.89
2019-06-10T21:08:34.356Z,20.66
2019-06-10T21:11:04.714Z,20.46
2019-06-10T21:13:35.247Z,20.30
2019-06-10T21:16:05.762Z,19.63
2019-06-10T21:18:36.516Z,19.28
2019-06-10T21:21:06.925Z,19.23
2019-06-10T21:23:37.207Z,19.07
2019-06-10T21:26:07.879Z,19.03
2019-06-10T21:28:38.169Z,18.91
2019-06-10T21:31:08.504Z,18.83
2019-06-10T21:33:38.883Z,18.77
2019-06-10T21:36:09.350Z,18.82
2019-06-10T21:38:39.723Z,18.79
2019-06-10T21:41:12.317Z,18.76
2019-06-10T21:43:49.375Z,18.78
2019-06-10T21:46:15.942Z,18.68
2019-06-10T21:48:47.756Z,18.61
2019-06-10T21:51:18.531Z,18.72
2019-06-10T21:53:49.201Z,18.78
2019-06-10T21:56:22.308Z,18.38
2019-06-10T21:58:53.795Z,18.29
2019-06-10T22:01:23.628Z,18.08
2019-06-10T22:04:00.534Z,17.99
2019-06-10T22:06:26.464Z,18.11
2019-06-10T22:08:57.119Z,18.28
2019-06-10T22:11:28.766Z,17.86
2019-06-10T22:13:59.040Z,17.97
2019-06-10T22:16:29.524Z,18.12
2019-06-10T22:19:03.097Z,18.05
2019-06-10T22:21:32.657Z,17.84
2019-06-10T22:24:03.166Z,17.93
2019-06-10T22:26:33.947Z,17.79
2019-06-10T22:29:04.507Z,18.15
2019-06-10T22:31:34.811Z,18.24
2019-06-10T22:34:05.460Z,17.90
2019-06-10T22:36:35.985Z,17.64
2019-06-10T22:39:07.083Z,17.46
2019-06-10T22:41:39.302Z,17.58
2019-06-10T22:44:12.510Z,17.70
2019-06-10T22:46:42.539Z,17.81
2019-06-10T22:49:13.613Z,17.63
2019-06-10T22:51:44.457Z,17.35
2019-06-10T22:54:14.780Z,17.28
2019-06-10T22:56:45.328Z,17.30
2019-06-10T22:59:15.587Z,17.35
2019-06-10T23:01:46.399Z,17.35
2019-06-10T23:04:16.990Z,17.14
2019-06-10T23:06:48.197Z,17.31
2019-06-10T23:09:18.979Z,17.35
2019-06-10T23:11:51.141Z,17.10
2019-06-10T23:14:22.761Z,17.21
2019-06-10T23:16:55.272Z,17.19
2019-06-10T23:19:27.285Z,17.14
2019-06-10T23:21:58.427Z,17.04
2019-06-10T23:24:32.240Z,16.84
2019-06-10T23:27:03.102Z,16.67
2019-06-10T23:29:33.873Z,16.67
2019-06-10T23:32:07.164Z,16.62
2019-06-10T23:34:36.369Z,16.41
2019-06-10T23:37:06.885Z,16.49
2019-06-10T23:39:37.510Z,16.65
2019-06-10T23:42:07.794Z,16.68
2019-06-10T23:44:38.114Z,16.30
2019-06-10T23:47:08.656Z,16.30
2019-06-10T23:49:38.979Z,16.27
2019-06-10T23:52:09.512Z,16.28
2019-06-10T23:54:40.212Z,16.26
2019-06-10T23:57:12.896Z,16.16
2019-06-10T23:59:43.108Z,16.07
